createdAt,value
2017-10-20T00:00:27.780Z,964.7
2017-10-20T00:01:29.436Z,964.8
2017-10-20T00:02:31.089Z,964.7
2017-10-20T00:03:32.748Z,964.8
2017-10-20T00:04:34.397Z,964.7
2017-10-20T00:05:36.061Z,964.7
2017-10-20T00:06:37.715Z,964.8
2017-10-20T00:07:39.374Z,964.8
2017-10-20T00:08:41.037Z,964.8
2017-10-20T00:09:42.690Z,964.8
2017-10-20T00:10:44.344Z,964.8
2017-10-20T00:11:46.006Z,964.8
2017-10-20T00:12:47.664Z,964.8
2017-10-20T00:13:49.310Z,964.8
2017-10-20T00:14:50.957Z,964.8
2017-10-20T00:15:52.609Z,964.8
2017-10-20T00:16:54.273Z,964.8
2017-10-20T00:17:55.932Z,964.7
2017-10-20T00:18:57.591Z,964.7
2017-10-20T00:19:59.236Z,964.8
2017-10-20T00:21:00.889Z,964.7
2017-10-20T00:22:02.547Z,964.7
2017-10-20T00:23:04.209Z,964.7
2017-10-20T00:24:05.858Z,964.7
2017-10-20T00:25:07.518Z,964.7
2017-10-20T00:26:09.232Z,964.7
2017-10-20T00:27:10.882Z,964.7
2017-10-20T00:28:12.536Z,964.8
2017-10-20T00:29:14.193Z,964.7
2017-10-20T00:30:15.857Z,964.7
2017-10-20T00:31:17.507Z,964.7
2017-10-20T00:32:19.167Z,964.7
2017-10-20T00:33:20.820Z,964.7
2017-10-20T00:34:22.472Z,964.7
2017-10-20T00:35:24.249Z,964.7
2017-10-20T00:36:25.913Z,964.7
2017-10-20T00:37:27.561Z,964.7
2017-10-20T00:38:29.223Z,964.8
2017-10-20T00:39:30.872Z,964.8
2017-10-20T00:40:32.534Z,964.8
2017-10-20T00:41:34.191Z,964.8
2017-10-20T00:42:35.856Z,964.8
2017-10-20T00:43:37.507Z,964.8
2017-10-20T00:44:39.155Z,964.8
2017-10-20T00:45:40.812Z,964.8
2017-10-20T00:46:42.475Z,964.8
2017-10-20T00:47:44.131Z,964.8
2017-10-20T00:48:45.787Z,964.9
2017-10-20T00:49:47.442Z,964.9
2017-10-20T00:50:49.100Z,964.9
2017-10-20T00:51:50.757Z,964.9
2017-10-20T00:52:52.424Z,964.9
2017-10-20T00:53:54.102Z,964.9
2017-10-20T00:54:55.762Z,964.9
2017-10-20T00:55:57.409Z,964.9
2017-10-20T00:56:59.070Z,964.9
2017-10-20T00:58:00.720Z,964.9
2017-10-20T00:59:02.382Z,964.9
2017-10-20T01:00:04.036Z,964.9
2017-10-20T01:01:05.692Z,964.8
2017-10-20T01:02:07.355Z,964.9
2017-10-20T01:03:09.014Z,964.9
2017-10-20T01:04:10.672Z,964.8
2017-10-20T01:05:12.325Z,964.8
2017-10-20T01:06:13.982Z,964.8
2017-10-20T01:07:15.638Z,964.8
2017-10-20T01:08:17.288Z,964.7
2017-10-20T01:09:18.953Z,964.8
2017-10-20T01:10:20.610Z,964.7
2017-10-20T01:11:22.265Z,964.8
2017-10-20T01:12:23.924Z,964.8
2017-10-20T01:13:25.578Z,964.8
2017-10-20T01:14:27.238Z,964.8
2017-10-20T01:15:28.900Z,964.8
2017-10-20T01:16:30.558Z,964.8
2017-10-20T01:17:32.208Z,964.8
2017-10-20T01:18:33.854Z,964.8
2017-10-20T01:19:35.509Z,964.8
2017-10-20T01:20:37.156Z,964.8
2017-10-20T01:21:38.809Z,964.7
2017-10-20T01:22:40.473Z,964.7
2017-10-20T01:23:42.135Z,964.8
2017-10-20T01:24:43.794Z,964.8
2017-10-20T01:25:45.451Z,964.8
2017-10-20T01:26:47.106Z,964.7
2017-10-20T01:27:48.756Z,964.7
2017-10-20T01:28:50.411Z,964.7
2017-10-20T01:29:52.067Z,964.7
2017-10-20T01:30:53.722Z,964.7
2017-10-20T01:31:55.375Z,964.7
2017-10-20T01:32:57.030Z,964.7
2017-10-20T01:33:58.965Z,964.6
2017-10-20T01:35:00.620Z,964.6
2017-10-20T01:36:02.290Z,964.7
2017-10-20T01:37:03.947Z,964.6
2017-10-20T01:38:05.603Z,964.6
2017-10-20T01:39:07.268Z,964.7
2017-10-20T01:40:08.926Z,964.7
2017-10-20T01:41:10.576Z,964.7
2017-10-20T01:42:12.240Z,964.7
2017-10-20T01:43:13.906Z,964.7
2017-10-20T01:44:15.565Z,964.6
2017-10-20T01:45:17.228Z,964.6
2017-10-20T01:46:18.880Z,964.6
2017-10-20T01:47:20.540Z,964.6
2017-10-20T01:48:22.192Z,964.6
2017-10-20T01:49:23.858Z,964.6
2017-10-20T01:50:25.539Z,964.6
2017-10-20T01:51:27.198Z,964.6
2017-10-20T01:52:28.851Z,964.6
2017-10-20T01:53:30.497Z,964.5
2017-10-20T01:54:32.148Z,964.6
2017-10-20T01:55:33.810Z,964.6
2017-10-20T02:01:40.949Z,964.5
2017-10-20T02:02:42.596Z,964.5
2017-10-20T02:03:44.247Z,964.5
2017-10-20T02:04:45.902Z,964.5
2017-10-20T02:05:47.564Z,964.5
2017-10-20T02:06:49.218Z,964.5
2017-10-20T02:07:50.879Z,964.5
2017-10-20T02:08:52.534Z,964.4
2017-10-20T02:09:54.189Z,964.4
2017-10-20T02:10:55.841Z,964.4
2017-10-20T02:11:57.500Z,964.4
2017-10-20T02:12:59.171Z,964.4
2017-10-20T02:14:00.807Z,964.4
2017-10-20T02:15:02.465Z,964.4
2017-10-20T02:16:04.149Z,964.4
2017-10-20T02:17:05.793Z,964.4
2017-10-20T02:18:07.451Z,964.3
2017-10-20T02:19:09.101Z,964.3
2017-10-20T02:20:10.761Z,964.3
2017-10-20T02:21:12.439Z,964.3
2017-10-20T02:22:14.099Z,964.3
2017-10-20T02:23:15.761Z,964.3
2017-10-20T02:24:17.409Z,964.3
2017-10-20T02:25:19.060Z,964.3
2017-10-20T02:26:20.710Z,964.2
2017-10-20T02:27:22.360Z,964.2
2017-10-20T02:28:24.019Z,964.3
2017-10-20T02:29:25.670Z,964.3
2017-10-20T02:30:27.374Z,964.2
2017-10-20T02:31:29.267Z,964.2
2017-10-20T02:32:30.920Z,964.2
2017-10-20T02:33:32.570Z,964.2
2017-10-20T02:34:34.222Z,964.2
2017-10-20T02:35:35.877Z,964.2
2017-10-20T02:36:37.525Z,964.2
2017-10-20T02:37:39.186Z,964.1
2017-10-20T02:38:40.842Z,964.1
2017-10-20T02:39:42.495Z,964.1
2017-10-20T02:40:44.158Z,964.1
2017-10-20T02:41:45.814Z,964.1
2017-10-20T02:42:47.523Z,964.1
2017-10-20T02:43:49.178Z,964.0
2017-10-20T02:44:50.839Z,964.0
2017-10-20T02:45:52.495Z,964.0
2017-10-20T02:46:54.165Z,964.1
2017-10-20T02:47:55.785Z,964.1
2017-10-20T02:48:57.443Z,964.0
2017-10-20T02:49:59.127Z,964.0
2017-10-20T02:51:00.787Z,964.0
2017-10-20T02:52:02.440Z,964.0
2017-10-20T02:53:04.101Z,964.0
2017-10-20T02:54:05.753Z,964.0
2017-10-20T02:55:07.404Z,964.0
2017-10-20T02:56:09.092Z,964.0
2017-10-20T02:57:10.744Z,964.0
2017-10-20T02:58:12.391Z,963.9
2017-10-20T02:59:14.058Z,964.0
2017-10-20T03:00:15.701Z,964.0
2017-10-20T03:01:17.349Z,964.0
2017-10-20T03:02:19.081Z,963.9
2017-10-20T03:03:20.734Z,963.9
2017-10-20T03:04:22.385Z,963.9
2017-10-20T03:05:24.031Z,963.9
2017-10-20T03:06:25.690Z,963.9
2017-10-20T03:07:27.355Z,963.9
2017-10-20T03:08:29.017Z,963.8
2017-10-20T03:09:30.716Z,963.8
2017-10-20T03:10:32.372Z,963.8
2017-10-20T03:11:34.024Z,963.8
2017-10-20T03:12:35.748Z,963.8
2017-10-20T03:13:37.412Z,963.8
2017-10-20T03:14:39.064Z,963.8
2017-10-20T03:15:40.716Z,963.8
2017-10-20T03:16:42.375Z,963.8
2017-10-20T03:17:44.054Z,963.7
2017-10-20T03:18:45.705Z,963.8
2017-10-20T03:19:47.358Z,963.7
2017-10-20T03:20:49.013Z,963.8
2017-10-20T03:21:50.669Z,963.7
2017-10-20T03:22:52.324Z,963.7
2017-10-20T03:23:53.992Z,963.8
2017-10-20T03:24:55.726Z,963.7
2017-10-20T03:25:57.375Z,963.7
2017-10-20T03:26:59.035Z,963.7
2017-10-20T03:28:00.691Z,963.7
2017-10-20T03:29:02.354Z,963.7
2017-10-20T03:30:04.007Z,963.8
2017-10-20T03:31:05.670Z,963.7
2017-10-20T03:32:07.327Z,963.7
2017-10-20T03:33:08.980Z,963.8
2017-10-20T03:34:10.643Z,963.7
2017-10-20T03:35:12.299Z,963.8
2017-10-20T03:36:13.952Z,963.8
2017-10-20T03:37:15.607Z,963.8
2017-10-20T03:38:17.265Z,963.8
2017-10-20T03:39:18.925Z,963.8
2017-10-20T03:40:20.582Z,963.7
2017-10-20T03:41:22.246Z,963.8
2017-10-20T03:42:23.893Z,963.8
2017-10-20T03:43:25.543Z,963.7
2017-10-20T03:44:27.196Z,963.7
2017-10-20T03:45:29.452Z,963.8
2017-10-20T03:46:31.880Z,963.8
2017-10-20T03:47:34.081Z,963.8
2017-10-20T03:48:36.825Z,963.8
2017-10-20T03:49:39.346Z,963.8
2017-10-20T03:50:40.998Z,963.8
2017-10-20T03:51:42.651Z,963.8
2017-10-20T03:52:44.334Z,963.8
2017-10-20T03:53:45.997Z,963.8
2017-10-20T03:54:47.648Z,963.9
2017-10-20T03:55:49.301Z,963.8
2017-10-20T03:56:50.961Z,963.8
2017-10-20T03:57:52.618Z,963.8
2017-10-20T03:58:54.264Z,963.8
2017-10-20T03:59:55.915Z,963.7
2017-10-20T04:00:57.570Z,963.8
2017-10-20T04:01:59.229Z,963.8
2017-10-20T04:03:00.890Z,963.8
2017-10-20T04:04:02.549Z,963.8
2017-10-20T04:05:04.207Z,963.8
2017-10-20T04:06:05.858Z,963.8
2017-10-20T04:07:07.518Z,963.8
2017-10-20T04:08:09.203Z,963.7
2017-10-20T04:09:10.856Z,963.7
2017-10-20T04:10:12.512Z,963.7
2017-10-20T04:11:14.167Z,963.7
2017-10-20T04:12:15.829Z,963.8
2017-10-20T04:13:17.490Z,963.7
2017-10-20T04:14:19.137Z,963.7
2017-10-20T04:15:20.790Z,963.7
2017-10-20T04:16:22.463Z,963.7
2017-10-20T04:17:24.119Z,963.7
2017-10-20T04:18:25.773Z,963.7
2017-10-20T04:19:27.442Z,963.7
2017-10-20T04:20:29.094Z,963.7
2017-10-20T04:21:30.753Z,963.7
2017-10-20T04:22:32.409Z,963.8
2017-10-20T04:23:34.087Z,963.7
2017-10-20T04:24:35.744Z,963.7
2017-10-20T04:25:37.406Z,963.7
2017-10-20T04:26:39.057Z,963.8
2017-10-20T04:27:40.710Z,963.8
2017-10-20T04:28:42.363Z,963.8
2017-10-20T04:29:44.018Z,963.8
2017-10-20T04:30:45.679Z,963.8
2017-10-20T04:31:47.346Z,963.8
2017-10-20T04:32:49.005Z,963.8
2017-10-20T04:33:50.655Z,963.8
2017-10-20T04:34:52.312Z,963.7
2017-10-20T04:35:53.993Z,963.8
2017-10-20T04:36:55.651Z,963.7
2017-10-20T04:37:57.324Z,963.7
2017-10-20T04:38:58.968Z,963.7
2017-10-20T04:40:00.631Z,963.6
2017-10-20T04:41:02.289Z,963.6
2017-10-20T04:42:03.940Z,963.6
2017-10-20T04:43:05.600Z,963.6
2017-10-20T04:44:07.258Z,963.6
2017-10-20T04:45:08.921Z,963.5
2017-10-20T04:46:10.585Z,963.5
2017-10-20T04:47:12.243Z,963.5
2017-10-20T04:48:13.889Z,963.5
2017-10-20T04:49:15.550Z,963.5
2017-10-20T04:50:17.200Z,963.6
2017-10-20T04:51:18.851Z,963.6
2017-10-20T04:52:20.507Z,963.5
2017-10-20T04:53:22.158Z,963.5
2017-10-20T04:54:23.819Z,963.5
2017-10-20T04:55:25.530Z,963.5
2017-10-20T04:56:27.260Z,963.5
2017-10-20T04:57:28.904Z,963.5
2017-10-20T04:58:30.557Z,963.5
2017-10-20T04:59:32.239Z,963.5
2017-10-20T05:00:33.904Z,963.5
2017-10-20T05:01:35.598Z,963.5
2017-10-20T05:02:37.238Z,963.5
2017-10-20T05:03:38.916Z,963.5
2017-10-20T05:04:40.603Z,963.4
2017-10-20T05:05:42.264Z,963.4
2017-10-20T05:06:43.917Z,963.4
2017-10-20T05:07:45.571Z,963.4
2017-10-20T05:08:47.232Z,963.4
2017-10-20T05:09:48.895Z,963.5
2017-10-20T05:10:50.548Z,963.5
2017-10-20T05:11:52.199Z,963.5
2017-10-20T05:12:53.866Z,963.5
2017-10-20T05:13:55.879Z,963.5
2017-10-20T05:14:57.538Z,963.5
2017-10-20T05:15:59.374Z,963.5
2017-10-20T05:17:01.092Z,963.5
2017-10-20T05:18:04.136Z,963.5
2017-10-20T05:19:05.793Z,963.5
2017-10-20T05:20:07.464Z,963.6
2017-10-20T05:21:09.126Z,963.5
2017-10-20T05:22:10.787Z,963.4
2017-10-20T05:23:12.447Z,963.4
2017-10-20T05:24:14.186Z,963.5
2017-10-20T05:25:15.837Z,963.4
2017-10-20T05:26:17.696Z,963.5
2017-10-20T05:27:19.348Z,963.5
2017-10-20T05:28:21.010Z,963.5
2017-10-20T05:29:22.661Z,963.4
2017-10-20T05:30:24.314Z,963.5
2017-10-20T05:31:26.014Z,963.4
2017-10-20T05:32:27.650Z,963.4
2017-10-20T05:33:29.319Z,963.4
2017-10-20T05:34:31.580Z,963.4
2017-10-20T05:35:33.237Z,963.4
2017-10-20T05:36:34.898Z,963.4
2017-10-20T05:37:36.580Z,963.4
2017-10-20T05:38:38.411Z,963.5
2017-10-20T05:39:40.067Z,963.4
2017-10-20T05:40:41.754Z,963.4
2017-10-20T05:41:43.435Z,963.4
2017-10-20T05:42:45.157Z,963.4
2017-10-20T05:43:46.874Z,963.5
2017-10-20T05:44:48.555Z,963.4
2017-10-20T05:45:50.218Z,963.4
2017-10-20T05:46:51.878Z,963.4
2017-10-20T05:47:53.537Z,963.4
2017-10-20T05:48:55.187Z,963.4
2017-10-20T05:49:56.865Z,963.5
2017-10-20T05:50:58.524Z,963.4
2017-10-20T05:52:00.188Z,963.4
2017-10-20T05:53:01.868Z,963.4
2017-10-20T05:54:03.554Z,963.4
2017-10-20T05:55:05.220Z,963.4
2017-10-20T06:01:15.264Z,963.3
2017-10-20T06:02:16.953Z,963.2
2017-10-20T06:03:18.616Z,963.2
2017-10-20T06:04:20.271Z,963.2
2017-10-20T06:05:21.920Z,963.2
2017-10-20T06:06:23.591Z,963.2
2017-10-20T06:07:25.290Z,963.2
2017-10-20T06:08:26.948Z,963.3
2017-10-20T06:09:28.600Z,963.3
2017-10-20T06:10:30.256Z,963.2
2017-10-20T06:11:31.913Z,963.2
2017-10-20T06:12:33.567Z,963.2
2017-10-20T06:13:35.233Z,963.3
2017-10-20T06:14:36.896Z,963.3
2017-10-20T06:15:38.552Z,963.3
2017-10-20T06:16:40.208Z,963.3
2017-10-20T06:17:41.864Z,963.4
2017-10-20T06:18:43.579Z,963.3
2017-10-20T06:19:45.252Z,963.4
2017-10-20T06:20:46.914Z,963.4
2017-10-20T06:21:48.574Z,963.4
2017-10-20T06:22:50.281Z,963.4
2017-10-20T06:23:51.975Z,963.4
2017-10-20T06:24:53.631Z,963.4
2017-10-20T06:25:55.298Z,963.4
2017-10-20T06:26:56.952Z,963.4
2017-10-20T06:27:58.625Z,963.5
2017-10-20T06:29:00.305Z,963.5
2017-10-20T06:30:01.983Z,963.5
2017-10-20T06:31:03.637Z,963.5
2017-10-20T06:32:05.325Z,963.5
2017-10-20T06:33:06.992Z,963.5
2017-10-20T06:34:08.649Z,963.5
2017-10-20T06:35:10.304Z,963.5
2017-10-20T06:36:11.975Z,963.5
2017-10-20T06:37:13.634Z,963.5
2017-10-20T06:38:15.290Z,963.5
2017-10-20T06:39:16.954Z,963.5
2017-10-20T06:40:18.626Z,963.5
2017-10-20T06:41:20.289Z,963.5
2017-10-20T06:42:21.952Z,963.5
2017-10-20T06:43:23.685Z,963.5
2017-10-20T06:44:25.369Z,963.5
2017-10-20T06:45:27.048Z,963.5
2017-10-20T06:46:28.719Z,963.5
2017-10-20T06:47:30.419Z,963.5
2017-10-20T06:48:32.078Z,963.5
2017-10-20T06:49:33.742Z,963.5
2017-10-20T06:50:35.407Z,963.5
2017-10-20T06:51:37.096Z,963.6
2017-10-20T06:52:38.759Z,963.6
2017-10-20T06:53:40.422Z,963.6
2017-10-20T06:54:42.084Z,963.6
2017-10-20T06:55:43.736Z,963.6
2017-10-20T06:56:45.397Z,963.7
2017-10-20T06:57:47.054Z,963.7
2017-10-20T06:58:48.713Z,963.8
2017-10-20T06:59:50.380Z,963.8
2017-10-20T07:00:52.066Z,963.8
2017-10-20T07:01:53.745Z,963.8
2017-10-20T07:02:55.421Z,963.9
2017-10-20T07:03:57.081Z,963.9
2017-10-20T07:04:58.749Z,963.9
2017-10-20T07:06:00.420Z,963.8
2017-10-20T07:07:02.083Z,963.9
2017-10-20T07:08:03.770Z,963.8
2017-10-20T07:09:05.474Z,963.9
2017-10-20T07:10:07.143Z,963.9
2017-10-20T07:11:08.817Z,963.9
2017-10-20T07:12:10.479Z,963.9
2017-10-20T07:13:12.145Z,964.0
2017-10-20T07:14:13.801Z,964.0
2017-10-20T07:15:15.481Z,964.0
2017-10-20T07:16:17.143Z,963.9
2017-10-20T07:17:18.808Z,964.0
2017-10-20T07:18:20.500Z,964.1
2017-10-20T07:19:22.167Z,964.0
2017-10-20T07:20:23.827Z,964.0
2017-10-20T07:21:25.496Z,964.1
2017-10-20T07:22:27.151Z,964.0
2017-10-20T07:23:28.816Z,964.0
2017-10-20T07:24:30.478Z,964.0
2017-10-20T07:25:32.148Z,964.0
2017-10-20T07:26:33.820Z,964.1
2017-10-20T07:27:35.485Z,964.1
2017-10-20T07:28:37.151Z,964.0
2017-10-20T07:29:38.803Z,964.0
2017-10-20T07:30:40.502Z,964.2
2017-10-20T07:31:42.168Z,964.2
2017-10-20T07:32:43.842Z,964.2
2017-10-20T07:33:45.507Z,964.2
2017-10-20T07:34:47.174Z,964.2
2017-10-20T07:35:48.885Z,964.2
2017-10-20T07:36:50.560Z,964.2
2017-10-20T07:37:52.205Z,964.3
2017-10-20T07:38:53.865Z,964.3
2017-10-20T07:39:55.543Z,964.3
2017-10-20T07:40:57.194Z,964.2
2017-10-20T07:41:58.852Z,964.2
2017-10-20T07:43:00.519Z,964.2
2017-10-20T07:44:02.185Z,964.2
2017-10-20T07:45:03.853Z,964.2
2017-10-20T07:46:05.508Z,964.2
2017-10-20T07:47:07.166Z,964.3
2017-10-20T07:48:08.824Z,964.3
2017-10-20T07:49:10.483Z,964.2
2017-10-20T07:50:12.151Z,964.2
2017-10-20T07:51:13.811Z,964.3
2017-10-20T07:52:15.482Z,964.2
2017-10-20T07:53:17.149Z,964.2
2017-10-20T07:54:18.804Z,964.2
2017-10-20T07:55:20.467Z,964.3
2017-10-20T07:56:22.128Z,964.3
2017-10-20T07:57:23.784Z,964.3
2017-10-20T07:58:25.466Z,964.2
2017-10-20T07:59:27.132Z,964.3
2017-10-20T08:00:28.791Z,964.2
2017-10-20T08:01:30.449Z,964.2
2017-10-20T08:02:32.111Z,964.2
2017-10-20T08:03:33.779Z,964.3
2017-10-20T08:04:35.436Z,964.2
2017-10-20T08:05:37.104Z,964.2
2017-10-20T08:06:38.765Z,964.3
2017-10-20T08:07:40.433Z,964.2
2017-10-20T08:08:42.111Z,964.3
2017-10-20T08:09:43.775Z,964.2
2017-10-20T08:10:45.436Z,964.2
2017-10-20T08:11:47.103Z,964.2
2017-10-20T08:12:48.764Z,964.3
2017-10-20T08:13:50.427Z,964.2
2017-10-20T08:14:52.088Z,964.3
2017-10-20T08:15:53.747Z,964.3
2017-10-20T08:16:55.416Z,964.3
2017-10-20T08:17:57.094Z,964.3
2017-10-20T08:18:58.749Z,964.2
2017-10-20T08:20:00.418Z,964.2
2017-10-20T08:21:02.099Z,964.2
2017-10-20T08:22:03.754Z,964.1
2017-10-20T08:23:05.413Z,964.2
2017-10-20T08:24:07.079Z,964.1
2017-10-20T08:25:08.744Z,964.1
2017-10-20T08:26:10.410Z,964.1
2017-10-20T08:27:12.064Z,964.1
2017-10-20T08:28:13.715Z,964.0
2017-10-20T08:29:15.365Z,964.0
2017-10-20T08:30:17.034Z,964.0
2017-10-20T08:31:18.696Z,964.0
2017-10-20T08:32:20.359Z,964.0
2017-10-20T08:33:22.020Z,964.0
2017-10-20T08:34:23.684Z,964.0
2017-10-20T08:35:25.371Z,964.0
2017-10-20T08:36:27.031Z,964.0
2017-10-20T08:37:28.723Z,964.0
2017-10-20T08:38:30.398Z,964.0
2017-10-20T08:39:32.063Z,964.0
2017-10-20T08:40:33.724Z,963.9
2017-10-20T08:41:35.378Z,963.9
2017-10-20T08:42:37.043Z,963.9
2017-10-20T08:43:38.700Z,963.9
2017-10-20T08:44:40.360Z,963.9
2017-10-20T08:45:42.030Z,963.9
2017-10-20T08:46:43.690Z,963.9
2017-10-20T08:47:45.365Z,963.8
2017-10-20T08:48:47.006Z,963.9
2017-10-20T08:49:48.668Z,963.8
2017-10-20T08:50:50.353Z,963.7
2017-10-20T08:51:52.020Z,963.7
2017-10-20T08:52:53.690Z,963.7
2017-10-20T08:53:55.351Z,963.7
2017-10-20T08:54:57.025Z,963.7
2017-10-20T08:55:58.692Z,963.7
2017-10-20T08:57:00.358Z,963.7
2017-10-20T08:58:02.057Z,963.8
2017-10-20T08:59:03.682Z,963.8
2017-10-20T09:00:05.354Z,963.7
2017-10-20T09:01:07.024Z,963.7
2017-10-20T09:02:08.680Z,963.7
2017-10-20T09:03:10.363Z,963.8
2017-10-20T09:04:12.038Z,963.8
2017-10-20T09:05:13.732Z,963.8
2017-10-20T09:06:15.413Z,963.8
2017-10-20T09:07:17.084Z,963.9
2017-10-20T09:08:18.903Z,963.9
2017-10-20T09:09:20.561Z,963.9
2017-10-20T09:10:22.240Z,963.9
2017-10-20T09:11:23.896Z,963.8
2017-10-20T09:12:25.580Z,963.9
2017-10-20T09:13:27.232Z,964.0
2017-10-20T09:14:28.906Z,964.2
2017-10-20T09:15:30.558Z,964.3
2017-10-20T09:16:32.221Z,964.2
2017-10-20T09:17:33.898Z,964.2
2017-10-20T09:18:35.576Z,964.2
2017-10-20T09:19:37.244Z,964.3
2017-10-20T09:20:38.918Z,964.3
2017-10-20T09:21:40.587Z,964.3
2017-10-20T09:22:42.251Z,964.3
2017-10-20T09:23:43.916Z,964.4
2017-10-20T09:24:45.584Z,964.3
2017-10-20T09:25:47.251Z,964.2
2017-10-20T09:26:48.939Z,964.3
2017-10-20T09:27:50.606Z,964.2
2017-10-20T09:28:52.277Z,964.3
2017-10-20T09:29:53.970Z,964.2
2017-10-20T09:30:55.631Z,964.2
2017-10-20T09:31:57.330Z,964.2
2017-10-20T09:32:59.021Z,964.2
2017-10-20T09:34:00.693Z,964.1
2017-10-20T09:35:02.357Z,964.1
2017-10-20T09:36:04.039Z,964.1
2017-10-20T09:37:05.709Z,964.1
2017-10-20T09:38:07.387Z,964.0
2017-10-20T09:39:09.072Z,964.1
2017-10-20T09:40:10.738Z,964.2
2017-10-20T09:41:12.411Z,964.0
2017-10-20T09:42:14.123Z,964.0
2017-10-20T09:43:15.791Z,964.0
2017-10-20T09:44:17.467Z,964.1
2017-10-20T09:45:19.132Z,964.2
2017-10-20T09:46:20.825Z,964.0
2017-10-20T09:47:22.499Z,963.9
2017-10-20T09:48:24.176Z,963.8
2017-10-20T09:49:25.851Z,963.8
2017-10-20T09:50:27.535Z,963.7
2017-10-20T09:51:29.205Z,963.8
2017-10-20T09:52:30.880Z,963.8
2017-10-20T09:53:32.561Z,963.8
2017-10-20T09:54:34.232Z,963.7
2017-10-20T09:55:35.904Z,963.7
2017-10-20T10:02:04.491Z,963.7
2017-10-20T10:03:06.167Z,963.7
2017-10-20T10:04:58.012Z,963.8
2017-10-20T10:05:59.694Z,963.7
2017-10-20T10:07:51.829Z,963.7
2017-10-20T10:08:53.491Z,963.7
2017-10-20T10:09:55.160Z,963.6
2017-10-20T10:10:56.829Z,963.7
2017-10-20T10:11:58.487Z,963.7
2017-10-20T10:13:00.157Z,963.6
2017-10-20T10:14:01.823Z,963.6
2017-10-20T10:15:03.492Z,963.6
2017-10-20T10:16:05.154Z,963.6
2017-10-20T10:17:06.813Z,963.6
2017-10-20T10:18:08.475Z,963.6
2017-10-20T10:19:10.135Z,963.6
2017-10-20T10:20:11.797Z,963.6
2017-10-20T10:21:13.463Z,963.5
2017-10-20T10:22:15.125Z,963.5
2017-10-20T10:23:16.789Z,963.6
2017-10-20T10:24:18.478Z,963.6
2017-10-20T10:25:20.158Z,963.5
2017-10-20T10:26:21.986Z,963.5
2017-10-20T10:27:23.645Z,963.6
2017-10-20T10:28:25.339Z,963.5
2017-10-20T10:29:27.003Z,963.5
2017-10-20T10:30:28.672Z,963.4
2017-10-20T10:31:30.321Z,963.4
2017-10-20T10:32:31.985Z,963.4
2017-10-20T10:33:33.645Z,963.4
2017-10-20T10:34:35.332Z,963.4
2017-10-20T10:35:37.013Z,963.5
2017-10-20T10:36:38.691Z,963.4
2017-10-20T10:37:40.364Z,963.4
2017-10-20T10:38:42.024Z,963.4
2017-10-20T10:39:43.686Z,963.2
2017-10-20T10:40:45.367Z,963.4
2017-10-20T10:41:47.039Z,963.3
2017-10-20T10:42:48.723Z,963.3
2017-10-20T10:43:50.404Z,963.4
2017-10-20T10:44:52.067Z,963.4
2017-10-20T10:45:53.768Z,963.4
2017-10-20T10:46:55.427Z,963.4
2017-10-20T10:47:57.100Z,963.4
2017-10-20T10:48:58.781Z,963.4
2017-10-20T10:50:00.448Z,963.4
2017-10-20T10:51:02.127Z,963.3
2017-10-20T10:52:03.800Z,963.4
2017-10-20T10:53:05.469Z,963.4
2017-10-20T10:54:07.140Z,963.3
2017-10-20T10:55:08.805Z,963.3
2017-10-20T10:56:10.476Z,963.4
2017-10-20T10:57:12.169Z,963.4
2017-10-20T10:58:13.838Z,963.3
2017-10-20T10:59:15.523Z,963.3
2017-10-20T11:00:17.224Z,963.4
2017-10-20T11:01:18.879Z,963.4
2017-10-20T11:02:20.552Z,963.3
2017-10-20T11:03:22.218Z,963.3
2017-10-20T11:04:23.887Z,963.3
2017-10-20T11:05:25.560Z,963.2
2017-10-20T11:06:27.247Z,963.3
2017-10-20T11:07:28.906Z,963.3
2017-10-20T11:08:30.564Z,963.3
2017-10-20T11:09:32.234Z,963.3
2017-10-20T11:10:33.897Z,963.3
2017-10-20T11:11:35.551Z,963.1
2017-10-20T11:12:37.221Z,963.2
2017-10-20T11:13:38.884Z,963.1
2017-10-20T11:14:40.544Z,963.2
2017-10-20T11:15:42.213Z,963.2
2017-10-20T11:16:43.929Z,963.1
2017-10-20T11:17:45.602Z,963.0
2017-10-20T11:18:47.267Z,963.2
2017-10-20T11:19:48.936Z,963.1
2017-10-20T11:20:50.590Z,963.2
2017-10-20T11:21:52.271Z,963.3
2017-10-20T11:22:53.958Z,963.3
2017-10-20T11:23:55.837Z,963.3
2017-10-20T11:24:57.643Z,963.4
2017-10-20T11:25:59.341Z,963.3
2017-10-20T11:27:01.094Z,963.3
2017-10-20T11:28:02.771Z,963.2
2017-10-20T11:29:05.475Z,963.4
2017-10-20T11:30:06.968Z,963.4
2017-10-20T11:31:08.640Z,963.5
2017-10-20T11:32:10.327Z,963.4
2017-10-20T11:33:11.998Z,963.4
2017-10-20T11:34:13.677Z,963.5
2017-10-20T11:35:15.340Z,963.6
2017-10-20T11:36:17.006Z,963.5
2017-10-20T11:37:18.928Z,963.6
2017-10-20T11:38:20.588Z,963.6
2017-10-20T11:39:22.262Z,963.4
2017-10-20T11:40:24.547Z,963.4
2017-10-20T11:41:26.164Z,963.3
2017-10-20T11:42:27.830Z,963.4
2017-10-20T11:43:29.499Z,963.4
2017-10-20T11:44:31.160Z,963.5
2017-10-20T11:45:32.833Z,963.5
2017-10-20T11:46:34.496Z,963.5
2017-10-20T11:47:36.160Z,963.6
2017-10-20T11:48:37.834Z,963.6
2017-10-20T11:49:39.506Z,963.6
2017-10-20T11:50:41.162Z,963.7
2017-10-20T11:51:42.825Z,963.8
2017-10-20T11:52:44.495Z,963.7
2017-10-20T11:53:46.156Z,963.7
2017-10-20T11:54:47.831Z,963.9
2017-10-20T11:55:49.525Z,963.7
2017-10-20T11:56:51.190Z,963.9
2017-10-20T11:57:52.874Z,963.8
2017-10-20T11:58:54.537Z,963.7
2017-10-20T11:59:56.212Z,963.7
2017-10-20T12:00:58.046Z,963.8
2017-10-20T12:01:59.847Z,963.7
2017-10-20T12:03:01.532Z,963.8
2017-10-20T12:04:03.209Z,963.8
2017-10-20T12:05:04.872Z,963.8
2017-10-20T12:06:06.543Z,963.8
2017-10-20T12:07:08.331Z,963.8
2017-10-20T12:08:09.975Z,963.8
2017-10-20T12:09:11.657Z,963.7
2017-10-20T12:10:13.325Z,963.7
2017-10-20T12:11:15.055Z,963.7
2017-10-20T12:12:16.722Z,963.8
2017-10-20T12:13:18.386Z,963.8
2017-10-20T12:14:20.062Z,963.8
2017-10-20T12:15:24.984Z,963.8
2017-10-20T12:16:26.706Z,963.9
2017-10-20T12:17:28.393Z,963.9
2017-10-20T12:18:30.082Z,963.9
2017-10-20T12:19:31.747Z,964.0
2017-10-20T12:20:33.424Z,963.9
2017-10-20T12:21:35.097Z,964.0
2017-10-20T12:22:36.766Z,964.0
2017-10-20T12:23:38.430Z,964.0
2017-10-20T12:24:40.096Z,963.9
2017-10-20T12:25:42.082Z,963.9
2017-10-20T12:26:43.743Z,964.1
2017-10-20T12:27:45.413Z,964.1
2017-10-20T12:28:47.077Z,963.9
2017-10-20T12:29:48.762Z,963.9
2017-10-20T12:30:50.438Z,964.0
2017-10-20T12:31:52.117Z,964.1
2017-10-20T12:32:53.777Z,964.1
2017-10-20T12:33:55.445Z,964.2
2017-10-20T12:34:57.134Z,964.0
2017-10-20T12:35:58.818Z,964.0
2017-10-20T12:37:00.493Z,964.0
2017-10-20T12:38:02.156Z,964.0
2017-10-20T12:39:04.187Z,963.9
2017-10-20T12:40:05.838Z,964.0
2017-10-20T12:41:07.535Z,964.1
2017-10-20T12:42:09.220Z,964.0
2017-10-20T12:43:10.935Z,963.9
2017-10-20T12:44:12.602Z,964.0
2017-10-20T12:45:14.270Z,963.9
2017-10-20T12:46:15.937Z,964.0
2017-10-20T12:47:17.611Z,963.9
2017-10-20T12:48:19.282Z,964.0
2017-10-20T12:49:20.938Z,963.9
2017-10-20T12:50:22.625Z,963.9
2017-10-20T12:51:24.288Z,964.1
2017-10-20T12:52:25.971Z,964.0
2017-10-20T12:53:27.636Z,964.1
2017-10-20T12:54:29.294Z,964.0
2017-10-20T12:55:31.026Z,964.0
2017-10-20T12:56:32.703Z,964.0
2017-10-20T12:57:34.382Z,964.0
2017-10-20T12:58:36.041Z,964.0
2017-10-20T12:59:37.711Z,964.1
2017-10-20T13:00:39.407Z,964.0
2017-10-20T13:01:41.082Z,964.2
2017-10-20T13:02:42.741Z,964.2
2017-10-20T13:03:44.408Z,964.3
2017-10-20T13:04:46.128Z,964.2
2017-10-20T13:05:47.811Z,964.2
2017-10-20T13:06:49.476Z,964.2
2017-10-20T13:07:51.153Z,964.3
2017-10-20T13:08:52.829Z,964.2
2017-10-20T13:09:54.616Z,964.4
2017-10-20T13:10:56.476Z,964.4
2017-10-20T13:11:58.140Z,964.3
2017-10-20T13:12:59.828Z,964.3
2017-10-20T13:14:01.498Z,964.3
2017-10-20T13:15:03.316Z,964.2
2017-10-20T13:16:05.054Z,964.3
2017-10-20T13:17:06.808Z,964.2
2017-10-20T13:18:08.542Z,964.3
2017-10-20T13:19:10.559Z,964.4
2017-10-20T13:20:12.373Z,964.4
2017-10-20T13:21:14.210Z,964.4
2017-10-20T13:22:15.923Z,964.2
2017-10-20T13:23:17.615Z,964.2
2017-10-20T13:24:19.296Z,964.3
2017-10-20T13:25:20.986Z,964.2
2017-10-20T13:26:22.650Z,964.1
2017-10-20T13:27:24.315Z,964.1
2017-10-20T13:28:26.018Z,964.2
2017-10-20T13:29:27.672Z,964.2
2017-10-20T13:30:29.622Z,964.3
2017-10-20T13:31:31.252Z,964.2